Terminal Aerodrome Forecast
Issued by NWS Shreveport, LA

Home | Current Version | Previous Version | Text Only | Print | Product List | Glossary On
Versions: 1 2 3 4 5 6 7 8 9 10 11 12 13 14
000
FTUS44 KSHV 280400 AAA
TAFMLU
TAF AMD
KMLU 280407Z 2804/2824 35013KT 5SM -SHRA BR BKN007 OVC015
      TEMPO 2804/2808 6SM -SHRA BR BKN010 OVC020
     FM281200 01012KT 3SM -SHRA BR BKN007 OVC015
      TEMPO 2812/2815 1SM -TSRA BR OVC004CB
     FM281500 01008KT 1 1/2SM -RA BR OVC007
     FM281600 02007KT 4SM -RA BR OVC007=

USA.gov is the U.S. government's official web portal to all federal, state and local government web resources and services.